Tributaries of Vltava river

river Berounka - water gauge Beroun

Date and time (UTC) H (cm) Q (m3/s)
26. 6. 2019 14:40 83 9
26. 6. 2019 14:00 84 10
26. 6. 2019 13:00 83 9
26. 6. 2019 12:00 82 9
26. 6. 2019 11:00 83 9
26. 6. 2019 10:00 83 9
26. 6. 2019 09:00 83 9
26. 6. 2019 08:00 84 10
26. 6. 2019 07:00 84 10
26. 6. 2019 06:00 85 10
26. 6. 2019 05:00 86 10
26. 6. 2019 04:00 90 12
26. 6. 2019 03:00 90 12
26. 6. 2019 02:00 87 11

H - vodni stav, Q - discharge

river Sázava - water gauge Nespeky

Date and time (UTC) H (cm) Q (m3/s)
26. 6. 2019 14:40 49 5
26. 6. 2019 14:00 49 5
26. 6. 2019 13:00 49 5
26. 6. 2019 12:00 50 5
26. 6. 2019 11:00 50 5
26. 6. 2019 10:00 51 6
26. 6. 2019 09:00 50 5
26. 6. 2019 08:00 50 5
26. 6. 2019 07:00 50 5
26. 6. 2019 06:00 50 5
26. 6. 2019 05:00 50 5
26. 6. 2019 04:00 50 5
26. 6. 2019 03:00 50 5
26. 6. 2019 02:00 51 6

H - vodni stav, Q - discharge

river Otava - water gauge Písek

Date and time (UTC) H (cm) Q (m3/s)
26. 6. 2019 14:40 100 26
26. 6. 2019 14:00 99 25
26. 6. 2019 13:00 101 26
26. 6. 2019 12:00 102 27
26. 6. 2019 11:00 105 28
26. 6. 2019 10:00 110 30
26. 6. 2019 09:00 89 21
26. 6. 2019 08:00 103 27
26. 6. 2019 07:00 104 28
26. 6. 2019 06:00 104 28
26. 6. 2019 05:00 104 28
26. 6. 2019 04:00 105 28
26. 6. 2019 03:00 105 28
26. 6. 2019 02:00 105 28

H - vodni stav, Q - discharge

river Lužnice - water gauge Bechyně

Date and time (UTC) H (cm) Q (m3/s)
26. 6. 2019 14:40 91 5
26. 6. 2019 14:00 97 6
26. 6. 2019 13:00 98 6
26. 6. 2019 12:00 92 5
26. 6. 2019 11:00 111 10
26. 6. 2019 10:00 94 5
26. 6. 2019 09:00 93 5
26. 6. 2019 08:00 93 5
26. 6. 2019 07:00 94 5
26. 6. 2019 06:00 95 5
26. 6. 2019 05:00 96 6
26. 6. 2019 04:00 97 6
26. 6. 2019 03:00 95 5
26. 6. 2019 02:00 88 4

H - vodni stav, Q - discharge
Source data
Labe Basin Vltava Basin ČHMÚ